• Join FlightAware (Why Join?)
  • Login
  • US Flag 
04:34AM EDT


 

Airport Tracker/Info


-or-


 

Live Flight TrackerFlight Track Log ✈ JZA8145 ✈ 12-May-2013 ✈ CYEG - CYYC

Flight Track Log - Related Links

Times and Time Zones

All times are in EDT time to prevent confusion due to time zone crossing. See the JZA8145 flight status page for this flight to view local times or setup timezone preferences in your user account.

Time Position Orientation Groundspeed Altitude Reporting Facility
EDT Latitude Longitude Course Direction KTS MPH feet Rate Location/Type
03:01PM 53.2667 -113.5833 169° South 130 150 3,400  Level Edmonton Center
03:02PM 53.2333 -113.5333 138° Southeast 180 207 4,200 900 Climbing Edmonton Center
03:03PM 53.1833 -113.5333 180° South 170 196 5,200 1,140 Climbing Edmonton Center
03:04PM 53.1333 -113.5167 169° South 170 196 6,500 1,200 Climbing Edmonton Center
03:05PM 53.0703 -113.8185 163° South  Level FlightAware Approximate
03:05PM 53.0833 -113.5333 191° South 180 207 7,600  Level Edmonton Center
03:06PM 53.0054 -113.7962 169° South  Level FlightAware Approximate
03:06PM 53.0333 -113.5333 180° South 190 219 8,700  Level Edmonton Center
03:07PM 52.9833 -113.5500 191° South 200 230 10,000 1,200 Climbing Edmonton Center
03:08PM 52.9333 -113.5333 169° South 190 219 11,200 1,020 Climbing Edmonton Center
03:09PM 52.8500 -113.5500 187° South 200 230 12,100 1,200 Climbing Edmonton Center
03:10PM 52.8000 -113.5333 169° South 200 230 13,600 1,260 Climbing Edmonton Center
03:11PM 52.7500 -113.5500 191° South 160 184 14,700 1,020 Climbing Edmonton Center
03:12PM 52.7167 -113.5500 180° South 160 184 15,700 1,020 Climbing Edmonton Center
03:13PM 52.6667 -113.5667 191° South 170 196 16,800 600 Climbing Edmonton Center
03:14PM 52.6000 -113.5500 171° South 200 230 17,000  Climbing Edmonton Center
03:15PM 52.5333 -113.5667 189° South 230 265 16,900 -60 Descending Edmonton Center
03:16PM 52.4667 -113.5833 189° South 250 288 16,900  Level Edmonton Center
03:17PM 52.4000 -113.5667 171° South 250 288 16,900  Level Edmonton Center
03:18PM 52.3333 -113.5833 189° South 260 299 16,900  Level Edmonton Center
03:19PM 52.2667 -113.6000 189° South 260 299 16,900  Level Edmonton Center
03:20PM 52.1667 -113.6000 180° South 260 299 16,900  Level Edmonton Center
03:21PM 52.1000 -113.5833 171° South 260 299 16,900 -600 Level Edmonton Center
03:22PM 52.0333 -113.6000 189° South 270 311 15,700 -1,200 Descending Edmonton Center
03:23PM 51.9500 -113.6167 187° South 290 334 14,600 -1,140 Descending Edmonton Center
03:24PM 51.8833 -113.6000 171° South 290 334 13,500 -1,080 Descending Edmonton Center
03:25PM 51.8000 -113.6167 187° South 280 322 12,500 -900 Descending Edmonton Center
03:26PM 51.7333 -113.6500 197° South 260 299 11,700 -780 Descending Edmonton Center
03:27PM 51.6500 -113.6833 194° South 270 311 11,000 -480 Descending Edmonton Center
03:28PM 51.5833 -113.7333 205° Southwest 260 299 10,800 -360 Descending Edmonton Center
03:29PM 51.5333 -113.8000 220° Southwest 240 276 10,300 -480 Descending Edmonton Center
03:30PM 51.4833 -113.8667 220° Southwest 240 276 9,900 -420 Descending Edmonton Center
03:31PM 51.4500 -113.9667 242° Southwest 250 288 9,500 -420 Descending Edmonton Center
03:32PM 51.4000 -114.0500 226° Southwest 210 242 9,100 -540 Descending Edmonton Center
03:33PM 51.3500 -114.0333 168° South 170 196 8,500 -780 Descending Edmonton Center
03:34PM 51.3000 -114.0500 192° South 170 196 7,600 -900 Descending Edmonton Center
03:35PM 51.2667 -114.0500 180° South 170 196 6,700 -960 Descending Edmonton Center
03:36PM 51.2167 -114.0333 168° South 170 196 5,700 -960 Descending Edmonton Center
03:37PM 51.1667 -114.0500 192° South 170 196 4,800 -900 Descending Edmonton Center